sensor_id;sensor_type;location;lat;lon;timestamp;P1;durP1;ratioP1;P2;durP2;ratioP2
36315;SDS011;22343;50.820;2.666;2023-06-26T00:00:32;11.90;;;5.45;;
36315;SDS011;22343;50.820;2.666;2023-06-26T00:03:18;11.63;;;5.63;;
36315;SDS011;22343;50.820;2.666;2023-06-26T00:06:04;10.25;;;5.68;;
36315;SDS011;22343;50.820;2.666;2023-06-26T00:08:50;11.25;;;5.63;;
36315;SDS011;22343;50.820;2.666;2023-06-26T00:11:34;10.75;;;5.80;;
36315;SDS011;22343;50.820;2.666;2023-06-26T00:14:19;10.93;;;5.60;;
36315;SDS011;22343;50.820;2.666;2023-06-26T00:17:06;11.07;;;6.13;;
36315;SDS011;22343;50.820;2.666;2023-06-26T00:19:51;15.05;;;5.78;;
36315;SDS011;22343;50.820;2.666;2023-06-26T00:22:37;13.65;;;6.28;;
36315;SDS011;22343;50.820;2.666;2023-06-26T00:25:25;13.98;;;6.47;;
36315;SDS011;22343;50.820;2.666;2023-06-26T00:28:11;15.23;;;5.90;;
36315;SDS011;22343;50.820;2.666;2023-06-26T00:30:55;12.98;;;6.03;;
36315;SDS011;22343;50.820;2.666;2023-06-26T00:33:39;13.35;;;6.32;;
36315;SDS011;22343;50.820;2.666;2023-06-26T00:36:25;14.45;;;6.70;;
36315;SDS011;22343;50.820;2.666;2023-06-26T00:39:11;12.00;;;5.75;;
36315;SDS011;22343;50.820;2.666;2023-06-26T00:41:58;11.80;;;5.60;;
36315;SDS011;22343;50.820;2.666;2023-06-26T00:44:43;14.45;;;5.95;;
36315;SDS011;22343;50.820;2.666;2023-06-26T00:47:28;14.82;;;6.20;;
36315;SDS011;22343;50.820;2.666;2023-06-26T00:50:14;12.90;;;5.93;;
36315;SDS011;22343;50.820;2.666;2023-06-26T00:53:03;14.10;;;6.05;;
36315;SDS011;22343;50.820;2.666;2023-06-26T00:55:48;12.00;;;6.30;;
36315;SDS011;22343;50.820;2.666;2023-06-26T00:58:34;14.35;;;6.63;;
36315;SDS011;22343;50.820;2.666;2023-06-26T01:01:19;15.93;;;6.65;;
36315;SDS011;22343;50.820;2.666;2023-06-26T01:04:06;13.70;;;6.28;;
36315;SDS011;22343;50.820;2.666;2023-06-26T01:06:51;15.75;;;6.38;;
36315;SDS011;22343;50.820;2.666;2023-06-26T01:09:37;11.90;;;6.07;;
36315;SDS011;22343;50.820;2.666;2023-06-26T01:12:23;16.42;;;6.55;;
36315;SDS011;22343;50.820;2.666;2023-06-26T01:15:09;14.75;;;6.38;;
36315;SDS011;22343;50.820;2.666;2023-06-26T01:17:55;15.90;;;6.43;;
36315;SDS011;22343;50.820;2.666;2023-06-26T01:20:45;17.15;;;6.32;;
36315;SDS011;22343;50.820;2.666;2023-06-26T01:26:43;13.05;;;5.93;;
36315;SDS011;22343;50.820;2.666;2023-06-26T01:29:30;15.02;;;6.30;;
36315;SDS011;22343;50.820;2.666;2023-06-26T01:32:15;15.68;;;6.43;;
36315;SDS011;22343;50.820;2.666;2023-06-26T01:35:00;13.18;;;5.93;;
36315;SDS011;22343;50.820;2.666;2023-06-26T01:37:46;12.75;;;5.47;;
36315;SDS011;22343;50.820;2.666;2023-06-26T01:40:32;14.05;;;5.65;;
36315;SDS011;22343;50.820;2.666;2023-06-26T01:53:12;14.07;;;5.10;;
36315;SDS011;22343;50.820;2.666;2023-06-26T01:56:12;9.73;;;4.57;;
36315;SDS011;22343;50.820;2.666;2023-06-26T01:59:15;11.40;;;4.40;;
36315;SDS011;22343;50.820;2.666;2023-06-26T02:02:02;7.13;;;3.80;;
36315;SDS011;22343;50.820;2.666;2023-06-26T02:04:52;12.13;;;4.32;;
36315;SDS011;22343;50.820;2.666;2023-06-26T02:07:37;9.73;;;4.82;;
36315;SDS011;22343;50.820;2.666;2023-06-26T02:10:22;11.10;;;4.55;;
36315;SDS011;22343;50.820;2.666;2023-06-26T02:13:08;10.02;;;4.05;;
36315;SDS011;22343;50.820;2.666;2023-06-26T02:15:54;11.00;;;3.75;;
36315;SDS011;22343;50.820;2.666;2023-06-26T02:18:40;10.57;;;3.88;;
36315;SDS011;22343;50.820;2.666;2023-06-26T02:21:26;11.52;;;4.10;;
36315;SDS011;22343;50.820;2.666;2023-06-26T02:24:12;11.05;;;4.30;;
36315;SDS011;22343;50.820;2.666;2023-06-26T02:26:58;8.30;;;3.53;;
36315;SDS011;22343;50.820;2.666;2023-06-26T02:29:43;11.73;;;4.00;;
36315;SDS011;22343;50.820;2.666;2023-06-26T02:32:28;7.25;;;3.35;;
36315;SDS011;22343;50.820;2.666;2023-06-26T02:35:14;6.10;;;3.33;;
36315;SDS011;22343;50.820;2.666;2023-06-26T02:38:00;7.40;;;3.13;;
36315;SDS011;22343;50.820;2.666;2023-06-26T02:40:45;7.82;;;3.53;;
36315;SDS011;22343;50.820;2.666;2023-06-26T02:43:31;8.27;;;3.55;;
36315;SDS011;22343;50.820;2.666;2023-06-26T02:46:15;8.10;;;3.40;;
36315;SDS011;22343;50.820;2.666;2023-06-26T02:49:00;8.57;;;3.20;;
36315;SDS011;22343;50.820;2.666;2023-06-26T02:51:46;7.38;;;2.88;;
36315;SDS011;22343;50.820;2.666;2023-06-26T02:54:32;6.03;;;2.90;;
36315;SDS011;22343;50.820;2.666;2023-06-26T02:57:17;5.70;;;2.80;;
36315;SDS011;22343;50.820;2.666;2023-06-26T03:00:03;5.88;;;2.83;;
36315;SDS011;22343;50.820;2.666;2023-06-26T03:02:52;7.40;;;2.80;;
36315;SDS011;22343;50.820;2.666;2023-06-26T03:05:38;5.60;;;2.80;;
36315;SDS011;22343;50.820;2.666;2023-06-26T03:08:22;6.38;;;2.95;;
36315;SDS011;22343;50.820;2.666;2023-06-26T03:11:09;7.28;;;2.60;;
36315;SDS011;22343;50.820;2.666;2023-06-26T03:13:53;8.32;;;2.90;;
36315;SDS011;22343;50.820;2.666;2023-06-26T03:16:39;6.53;;;2.67;;
36315;SDS011;22343;50.820;2.666;2023-06-26T03:19:25;5.20;;;2.78;;
36315;SDS011;22343;50.820;2.666;2023-06-26T03:22:11;5.50;;;2.63;;
36315;SDS011;22343;50.820;2.666;2023-06-26T03:24:56;5.32;;;2.60;;
36315;SDS011;22343;50.820;2.666;2023-06-26T03:27:41;4.07;;;2.63;;
36315;SDS011;22343;50.820;2.666;2023-06-26T03:30:27;4.55;;;2.47;;
36315;SDS011;22343;50.820;2.666;2023-06-26T03:33:13;4.47;;;2.35;;
36315;SDS011;22343;50.820;2.666;2023-06-26T03:35:57;5.93;;;2.60;;
36315;SDS011;22343;50.820;2.666;2023-06-26T03:38:44;4.85;;;2.28;;
36315;SDS011;22343;50.820;2.666;2023-06-26T03:41:30;4.43;;;2.40;;
36315;SDS011;22343;50.820;2.666;2023-06-26T03:44:16;4.15;;;2.47;;
36315;SDS011;22343;50.820;2.666;2023-06-26T03:47:00;5.40;;;2.50;;
36315;SDS011;22343;50.820;2.666;2023-06-26T03:49:46;5.45;;;2.28;;
36315;SDS011;22343;50.820;2.666;2023-06-26T03:52:31;5.00;;;2.17;;
36315;SDS011;22343;50.820;2.666;2023-06-26T03:55:17;6.55;;;2.45;;
36315;SDS011;22343;50.820;2.666;2023-06-26T03:58:02;3.40;;;2.10;;
36315;SDS011;22343;50.820;2.666;2023-06-26T04:00:48;4.40;;;2.17;;
36315;SDS011;22343;50.820;2.666;2023-06-26T04:03:34;4.47;;;2.13;;
36315;SDS011;22343;50.820;2.666;2023-06-26T04:06:20;2.83;;;2.20;;
36315;SDS011;22343;50.820;2.666;2023-06-26T04:09:06;4.25;;;2.38;;
36315;SDS011;22343;50.820;2.666;2023-06-26T04:11:51;4.15;;;2.22;;
36315;SDS011;22343;50.820;2.666;2023-06-26T04:14:37;3.10;;;2.20;;
36315;SDS011;22343;50.820;2.666;2023-06-26T04:17:22;4.60;;;2.15;;
36315;SDS011;22343;50.820;2.666;2023-06-26T04:20:08;3.20;;;2.13;;
36315;SDS011;22343;50.820;2.666;2023-06-26T04:22:54;4.30;;;2.30;;
36315;SDS011;22343;50.820;2.666;2023-06-26T04:25:40;5.95;;;2.17;;
36315;SDS011;22343;50.820;2.666;2023-06-26T04:28:25;4.53;;;2.22;;
36315;SDS011;22343;50.820;2.666;2023-06-26T04:31:13;2.78;;;2.20;;
36315;SDS011;22343;50.820;2.666;2023-06-26T04:33:59;3.88;;;2.05;;
36315;SDS011;22343;50.820;2.666;2023-06-26T04:36:45;4.07;;;2.20;;
36315;SDS011;22343;50.820;2.666;2023-06-26T04:39:32;3.17;;;2.20;;
36315;SDS011;22343;50.820;2.666;2023-06-26T04:42:18;4.55;;;2.20;;
36315;SDS011;22343;50.820;2.666;2023-06-26T04:45:07;3.97;;;2.08;;
36315;SDS011;22343;50.820;2.666;2023-06-26T04:47:53;5.53;;;2.42;;
36315;SDS011;22343;50.820;2.666;2023-06-26T04:50:39;3.35;;;1.98;;
36315;SDS011;22343;50.820;2.666;2023-06-26T04:53:25;3.88;;;2.60;;
36315;SDS011;22343;50.820;2.666;2023-06-26T04:56:10;4.15;;;2.10;;
36315;SDS011;22343;50.820;2.666;2023-06-26T04:58:56;5.35;;;2.40;;
36315;SDS011;22343;50.820;2.666;2023-06-26T05:01:42;4.22;;;2.10;;
36315;SDS011;22343;50.820;2.666;2023-06-26T05:04:33;5.15;;;2.50;;
36315;SDS011;22343;50.820;2.666;2023-06-26T05:07:19;3.30;;;2.20;;
36315;SDS011;22343;50.820;2.666;2023-06-26T05:10:05;6.38;;;2.30;;
36315;SDS011;22343;50.820;2.666;2023-06-26T05:12:50;5.30;;;2.25;;
36315;SDS011;22343;50.820;2.666;2023-06-26T05:15:36;4.80;;;2.47;;
36315;SDS011;22343;50.820;2.666;2023-06-26T05:18:22;4.32;;;2.63;;
36315;SDS011;22343;50.820;2.666;2023-06-26T05:21:08;4.75;;;2.50;;
36315;SDS011;22343;50.820;2.666;2023-06-26T05:23:55;5.20;;;2.60;;
36315;SDS011;22343;50.820;2.666;2023-06-26T05:26:42;3.72;;;2.30;;
36315;SDS011;22343;50.820;2.666;2023-06-26T05:29:30;4.72;;;2.58;;
36315;SDS011;22343;50.820;2.666;2023-06-26T05:32:16;5.07;;;2.70;;
36315;SDS011;22343;50.820;2.666;2023-06-26T05:35:05;4.30;;;2.60;;
36315;SDS011;22343;50.820;2.666;2023-06-26T05:37:51;3.95;;;2.30;;
36315;SDS011;22343;50.820;2.666;2023-06-26T05:40:37;4.65;;;2.60;;
36315;SDS011;22343;50.820;2.666;2023-06-26T05:43:23;3.85;;;2.38;;
36315;SDS011;22343;50.820;2.666;2023-06-26T05:46:09;4.30;;;2.33;;
36315;SDS011;22343;50.820;2.666;2023-06-26T05:48:54;3.95;;;2.40;;
36315;SDS011;22343;50.820;2.666;2023-06-26T05:51:38;4.93;;;2.80;;
36315;SDS011;22343;50.820;2.666;2023-06-26T05:54:25;6.18;;;4.18;;
36315;SDS011;22343;50.820;2.666;2023-06-26T05:57:10;3.97;;;2.17;;
36315;SDS011;22343;50.820;2.666;2023-06-26T05:59:58;7.03;;;2.50;;
36315;SDS011;22343;50.820;2.666;2023-06-26T06:02:43;4.07;;;2.30;;
36315;SDS011;22343;50.820;2.666;2023-06-26T06:05:29;5.72;;;2.50;;
36315;SDS011;22343;50.820;2.666;2023-06-26T06:08:15;4.85;;;2.45;;
36315;SDS011;22343;50.820;2.666;2023-06-26T06:10:59;4.25;;;2.40;;
36315;SDS011;22343;50.820;2.666;2023-06-26T06:13:44;4.47;;;2.47;;
36315;SDS011;22343;50.820;2.666;2023-06-26T06:16:29;5.07;;;2.75;;
36315;SDS011;22343;50.820;2.666;2023-06-26T06:19:15;5.63;;;2.78;;
36315;SDS011;22343;50.820;2.666;2023-06-26T06:22:00;5.57;;;3.20;;
36315;SDS011;22343;50.820;2.666;2023-06-26T06:24:45;5.82;;;3.10;;
36315;SDS011;22343;50.820;2.666;2023-06-26T06:27:31;5.18;;;2.53;;
36315;SDS011;22343;50.820;2.666;2023-06-26T06:30:16;6.15;;;3.15;;
36315;SDS011;22343;50.820;2.666;2023-06-26T06:33:01;5.30;;;2.67;;
36315;SDS011;22343;50.820;2.666;2023-06-26T06:35:47;5.97;;;2.80;;
36315;SDS011;22343;50.820;2.666;2023-06-26T06:38:32;5.25;;;2.70;;
36315;SDS011;22343;50.820;2.666;2023-06-26T06:41:19;4.07;;;2.30;;
36315;SDS011;22343;50.820;2.666;2023-06-26T06:44:05;4.88;;;2.40;;
36315;SDS011;22343;50.820;2.666;2023-06-26T06:46:51;4.50;;;2.33;;
36315;SDS011;22343;50.820;2.666;2023-06-26T06:49:37;6.13;;;2.65;;
36315;SDS011;22343;50.820;2.666;2023-06-26T06:52:23;6.03;;;2.63;;
36315;SDS011;22343;50.820;2.666;2023-06-26T06:55:08;3.25;;;2.63;;
36315;SDS011;22343;50.820;2.666;2023-06-26T06:57:55;8.38;;;2.80;;
36315;SDS011;22343;50.820;2.666;2023-06-26T07:00:41;4.13;;;2.42;;
36315;SDS011;22343;50.820;2.666;2023-06-26T07:03:26;4.65;;;2.67;;
36315;SDS011;22343;50.820;2.666;2023-06-26T07:06:12;3.85;;;2.40;;
36315;SDS011;22343;50.820;2.666;2023-06-26T07:08:56;4.82;;;2.65;;
36315;SDS011;22343;50.820;2.666;2023-06-26T07:11:42;4.50;;;2.50;;
36315;SDS011;22343;50.820;2.666;2023-06-26T07:14:28;4.20;;;2.50;;
36315;SDS011;22343;50.820;2.666;2023-06-26T07:17:14;4.82;;;2.67;;
36315;SDS011;22343;50.820;2.666;2023-06-26T07:20:00;6.15;;;2.58;;
36315;SDS011;22343;50.820;2.666;2023-06-26T07:22:53;4.20;;;2.40;;
36315;SDS011;22343;50.820;2.666;2023-06-26T07:25:39;3.85;;;2.40;;
36315;SDS011;22343;50.820;2.666;2023-06-26T07:28:24;5.57;;;2.55;;
36315;SDS011;22343;50.820;2.666;2023-06-26T07:31:09;5.05;;;2.30;;
36315;SDS011;22343;50.820;2.666;2023-06-26T07:33:55;5.63;;;2.58;;
36315;SDS011;22343;50.820;2.666;2023-06-26T07:36:39;5.32;;;2.42;;
36315;SDS011;22343;50.820;2.666;2023-06-26T07:39:24;5.80;;;2.35;;
36315;SDS011;22343;50.820;2.666;2023-06-26T07:42:09;3.55;;;2.35;;
36315;SDS011;22343;50.820;2.666;2023-06-26T07:44:55;4.75;;;2.40;;
36315;SDS011;22343;50.820;2.666;2023-06-26T07:47:39;6.05;;;2.53;;
36315;SDS011;22343;50.820;2.666;2023-06-26T07:50:26;5.57;;;2.70;;
36315;SDS011;22343;50.820;2.666;2023-06-26T07:53:12;5.65;;;2.67;;
36315;SDS011;22343;50.820;2.666;2023-06-26T07:55:57;4.72;;;2.50;;
36315;SDS011;22343;50.820;2.666;2023-06-26T07:58:42;4.70;;;2.80;;
36315;SDS011;22343;50.820;2.666;2023-06-26T08:01:28;3.85;;;2.60;;
36315;SDS011;22343;50.820;2.666;2023-06-26T08:04:13;4.53;;;2.78;;
36315;SDS011;22343;50.820;2.666;2023-06-26T08:06:59;4.97;;;2.50;;
36315;SDS011;22343;50.820;2.666;2023-06-26T08:09:46;3.97;;;2.38;;
36315;SDS011;22343;50.820;2.666;2023-06-26T08:12:31;6.93;;;2.70;;
36315;SDS011;22343;50.820;2.666;2023-06-26T08:15:16;3.22;;;2.50;;
36315;SDS011;22343;50.820;2.666;2023-06-26T08:18:03;4.10;;;2.92;;
36315;SDS011;22343;50.820;2.666;2023-06-26T08:20:49;3.45;;;2.55;;
36315;SDS011;22343;50.820;2.666;2023-06-26T08:23:35;4.30;;;2.67;;
36315;SDS011;22343;50.820;2.666;2023-06-26T08:26:20;4.53;;;2.47;;
36315;SDS011;22343;50.820;2.666;2023-06-26T08:29:06;5.82;;;2.63;;
36315;SDS011;22343;50.820;2.666;2023-06-26T08:31:53;4.45;;;2.30;;
36315;SDS011;22343;50.820;2.666;2023-06-26T08:34:39;6.93;;;2.50;;
36315;SDS011;22343;50.820;2.666;2023-06-26T08:37:24;5.20;;;2.60;;
36315;SDS011;22343;50.820;2.666;2023-06-26T08:40:11;4.63;;;2.65;;
36315;SDS011;22343;50.820;2.666;2023-06-26T08:42:57;4.22;;;2.40;;
36315;SDS011;22343;50.820;2.666;2023-06-26T08:45:43;5.13;;;2.50;;
36315;SDS011;22343;50.820;2.666;2023-06-26T08:48:32;4.80;;;2.88;;
36315;SDS011;22343;50.820;2.666;2023-06-26T08:51:25;5.13;;;2.78;;
36315;SDS011;22343;50.820;2.666;2023-06-26T08:54:11;4.45;;;2.60;;
36315;SDS011;22343;50.820;2.666;2023-06-26T08:57:00;6.95;;;3.03;;
36315;SDS011;22343;50.820;2.666;2023-06-26T08:59:46;5.60;;;2.83;;
36315;SDS011;22343;50.820;2.666;2023-06-26T09:02:33;4.90;;;2.58;;
36315;SDS011;22343;50.820;2.666;2023-06-26T09:05:17;4.25;;;2.35;;
36315;SDS011;22343;50.820;2.666;2023-06-26T09:08:03;5.30;;;2.60;;
36315;SDS011;22343;50.820;2.666;2023-06-26T09:10:51;3.60;;;2.47;;
36315;SDS011;22343;50.820;2.666;2023-06-26T09:13:38;5.57;;;2.80;;
36315;SDS011;22343;50.820;2.666;2023-06-26T09:16:24;3.28;;;2.42;;
36315;SDS011;22343;50.820;2.666;2023-06-26T09:19:13;3.97;;;2.35;;
36315;SDS011;22343;50.820;2.666;2023-06-26T09:21:59;5.05;;;2.55;;
36315;SDS011;22343;50.820;2.666;2023-06-26T09:24:44;4.57;;;2.40;;
36315;SDS011;22343;50.820;2.666;2023-06-26T09:27:29;4.03;;;2.40;;
36315;SDS011;22343;50.820;2.666;2023-06-26T09:30:17;3.13;;;2.30;;
36315;SDS011;22343;50.820;2.666;2023-06-26T09:36:18;3.53;;;2.45;;
36315;SDS011;22343;50.820;2.666;2023-06-26T09:39:08;5.03;;;2.33;;
36315;SDS011;22343;50.820;2.666;2023-06-26T09:41:57;3.65;;;2.67;;
36315;SDS011;22343;50.820;2.666;2023-06-26T09:44:46;4.65;;;2.88;;
36315;SDS011;22343;50.820;2.666;2023-06-26T09:47:34;5.63;;;2.80;;
36315;SDS011;22343;50.820;2.666;2023-06-26T09:50:23;4.35;;;2.30;;
36315;SDS011;22343;50.820;2.666;2023-06-26T09:53:11;3.45;;;2.22;;
36315;SDS011;22343;50.820;2.666;2023-06-26T09:55:58;4.68;;;2.60;;
36315;SDS011;22343;50.820;2.666;2023-06-26T09:58:43;5.53;;;2.17;;
36315;SDS011;22343;50.820;2.666;2023-06-26T10:01:29;4.13;;;2.22;;
36315;SDS011;22343;50.820;2.666;2023-06-26T10:04:15;7.95;;;2.30;;
36315;SDS011;22343;50.820;2.666;2023-06-26T10:07:01;4.10;;;2.20;;
36315;SDS011;22343;50.820;2.666;2023-06-26T10:09:49;4.47;;;2.40;;
36315;SDS011;22343;50.820;2.666;2023-06-26T10:12:44;4.45;;;2.10;;
36315;SDS011;22343;50.820;2.666;2023-06-26T10:15:33;5.25;;;2.40;;
36315;SDS011;22343;50.820;2.666;2023-06-26T10:18:21;3.25;;;1.92;;
36315;SDS011;22343;50.820;2.666;2023-06-26T10:21:10;4.07;;;2.17;;
36315;SDS011;22343;50.820;2.666;2023-06-26T10:23:56;6.20;;;2.38;;
36315;SDS011;22343;50.820;2.666;2023-06-26T10:26:43;3.47;;;2.00;;
36315;SDS011;22343;50.820;2.666;2023-06-26T10:29:30;3.75;;;1.90;;
36315;SDS011;22343;50.820;2.666;2023-06-26T10:32:15;2.90;;;2.00;;
36315;SDS011;22343;50.820;2.666;2023-06-26T10:35:01;2.97;;;2.00;;
36315;SDS011;22343;50.820;2.666;2023-06-26T10:37:50;3.72;;;2.10;;
36315;SDS011;22343;50.820;2.666;2023-06-26T10:40:49;3.35;;;2.20;;
36315;SDS011;22343;50.820;2.666;2023-06-26T10:43:34;3.92;;;2.47;;
36315;SDS011;22343;50.820;2.666;2023-06-26T10:46:19;4.07;;;2.30;;
36315;SDS011;22343;50.820;2.666;2023-06-26T10:49:05;3.97;;;2.00;;
36315;SDS011;22343;50.820;2.666;2023-06-26T10:52:02;3.78;;;2.10;;
36315;SDS011;22343;50.820;2.666;2023-06-26T10:54:47;3.90;;;2.30;;
36315;SDS011;22343;50.820;2.666;2023-06-26T10:57:32;4.65;;;2.20;;
36315;SDS011;22343;50.820;2.666;2023-06-26T11:00:22;3.67;;;2.10;;
36315;SDS011;22343;50.820;2.666;2023-06-26T11:03:22;5.22;;;2.20;;
36315;SDS011;22343;50.820;2.666;2023-06-26T11:06:17;2.95;;;1.85;;
36315;SDS011;22343;50.820;2.666;2023-06-26T11:12:09;3.47;;;1.90;;
36315;SDS011;22343;50.820;2.666;2023-06-26T11:14:54;3.35;;;1.98;;
36315;SDS011;22343;50.820;2.666;2023-06-26T11:17:40;10.40;;;2.22;;
36315;SDS011;22343;50.820;2.666;2023-06-26T11:20:27;2.92;;;1.95;;
36315;SDS011;22343;50.820;2.666;2023-06-26T11:23:13;3.28;;;1.77;;
36315;SDS011;22343;50.820;2.666;2023-06-26T11:26:12;2.55;;;2.00;;
36315;SDS011;22343;50.820;2.666;2023-06-26T11:29:19;3.70;;;1.80;;
36315;SDS011;22343;50.820;2.666;2023-06-26T11:32:03;2.60;;;1.98;;
36315;SDS011;22343;50.820;2.666;2023-06-26T11:34:51;2.63;;;2.03;;
36315;SDS011;22343;50.820;2.666;2023-06-26T11:37:37;4.57;;;1.90;;
36315;SDS011;22343;50.820;2.666;2023-06-26T11:40:23;3.20;;;2.10;;
36315;SDS011;22343;50.820;2.666;2023-06-26T11:43:12;4.00;;;2.10;;
36315;SDS011;22343;50.820;2.666;2023-06-26T11:45:58;4.97;;;1.90;;
36315;SDS011;22343;50.820;2.666;2023-06-26T11:48:44;2.75;;;2.00;;
36315;SDS011;22343;50.820;2.666;2023-06-26T11:51:30;2.70;;;1.88;;
36315;SDS011;22343;50.820;2.666;2023-06-26T11:54:22;3.35;;;2.10;;
36315;SDS011;22343;50.820;2.666;2023-06-26T11:57:13;3.72;;;2.15;;
36315;SDS011;22343;50.820;2.666;2023-06-26T12:00:10;4.00;;;2.20;;
36315;SDS011;22343;50.820;2.666;2023-06-26T12:02:56;3.60;;;2.13;;
36315;SDS011;22343;50.820;2.666;2023-06-26T12:05:42;3.00;;;2.00;;
36315;SDS011;22343;50.820;2.666;2023-06-26T12:08:30;3.90;;;2.13;;
36315;SDS011;22343;50.820;2.666;2023-06-26T12:11:16;5.20;;;2.28;;
36315;SDS011;22343;50.820;2.666;2023-06-26T12:14:02;4.35;;;1.90;;
36315;SDS011;22343;50.820;2.666;2023-06-26T12:16:48;4.10;;;2.20;;
36315;SDS011;22343;50.820;2.666;2023-06-26T12:19:36;4.18;;;2.38;;
36315;SDS011;22343;50.820;2.666;2023-06-26T12:22:23;4.25;;;2.13;;
36315;SDS011;22343;50.820;2.666;2023-06-26T12:25:09;2.67;;;1.98;;
36315;SDS011;22343;50.820;2.666;2023-06-26T12:27:55;3.72;;;2.20;;
36315;SDS011;22343;50.820;2.666;2023-06-26T12:30:40;3.22;;;2.20;;
36315;SDS011;22343;50.820;2.666;2023-06-26T12:33:25;5.70;;;2.20;;
36315;SDS011;22343;50.820;2.666;2023-06-26T12:36:13;3.85;;;2.10;;
36315;SDS011;22343;50.820;2.666;2023-06-26T12:39:00;5.18;;;2.45;;
36315;SDS011;22343;50.820;2.666;2023-06-26T12:44:49;2.85;;;1.92;;
36315;SDS011;22343;50.820;2.666;2023-06-26T12:47:36;3.10;;;2.00;;
36315;SDS011;22343;50.820;2.666;2023-06-26T12:50:22;5.75;;;2.40;;
36315;SDS011;22343;50.820;2.666;2023-06-26T12:53:07;3.03;;;2.10;;
36315;SDS011;22343;50.820;2.666;2023-06-26T12:55:53;4.00;;;2.00;;
36315;SDS011;22343;50.820;2.666;2023-06-26T12:58:38;4.20;;;2.20;;
36315;SDS011;22343;50.820;2.666;2023-06-26T13:01:24;4.15;;;2.13;;
36315;SDS011;22343;50.820;2.666;2023-06-26T13:04:09;3.05;;;2.15;;
36315;SDS011;22343;50.820;2.666;2023-06-26T13:06:55;14.77;;;2.63;;
36315;SDS011;22343;50.820;2.666;2023-06-26T13:09:42;4.80;;;2.20;;
36315;SDS011;22343;50.820;2.666;2023-06-26T13:12:28;4.18;;;2.10;;
36315;SDS011;22343;50.820;2.666;2023-06-26T13:15:12;3.17;;;2.05;;
36315;SDS011;22343;50.820;2.666;2023-06-26T13:17:57;3.03;;;2.03;;
36315;SDS011;22343;50.820;2.666;2023-06-26T13:20:42;3.85;;;1.90;;
36315;SDS011;22343;50.820;2.666;2023-06-26T13:23:28;5.03;;;1.92;;
36315;SDS011;22343;50.820;2.666;2023-06-26T13:26:12;3.10;;;2.20;;
36315;SDS011;22343;50.820;2.666;2023-06-26T13:28:58;4.15;;;2.00;;
36315;SDS011;22343;50.820;2.666;2023-06-26T13:31:43;7.13;;;2.03;;
36315;SDS011;22343;50.820;2.666;2023-06-26T13:34:28;2.53;;;2.13;;
36315;SDS011;22343;50.820;2.666;2023-06-26T13:37:13;4.13;;;2.40;;
36315;SDS011;22343;50.820;2.666;2023-06-26T13:39:59;4.03;;;2.03;;
36315;SDS011;22343;50.820;2.666;2023-06-26T13:42:46;5.53;;;2.30;;
36315;SDS011;22343;50.820;2.666;2023-06-26T13:45:32;3.78;;;2.58;;
36315;SDS011;22343;50.820;2.666;2023-06-26T13:48:17;3.78;;;2.40;;
36315;SDS011;22343;50.820;2.666;2023-06-26T13:51:03;2.63;;;2.10;;
36315;SDS011;22343;50.820;2.666;2023-06-26T13:53:48;4.53;;;2.03;;
36315;SDS011;22343;50.820;2.666;2023-06-26T13:56:34;4.70;;;2.38;;
36315;SDS011;22343;50.820;2.666;2023-06-26T13:59:19;7.18;;;2.60;;
36315;SDS011;22343;50.820;2.666;2023-06-26T14:02:05;3.97;;;2.42;;
36315;SDS011;22343;50.820;2.666;2023-06-26T14:04:51;6.15;;;2.40;;
36315;SDS011;22343;50.820;2.666;2023-06-26T14:07:37;5.10;;;2.50;;
36315;SDS011;22343;50.820;2.666;2023-06-26T14:10:28;3.42;;;2.10;;
36315;SDS011;22343;50.820;2.666;2023-06-26T14:13:14;3.88;;;2.40;;
36315;SDS011;22343;50.820;2.666;2023-06-26T14:16:00;9.98;;;8.00;;
36315;SDS011;22343;50.820;2.666;2023-06-26T14:18:46;37.03;;;32.13;;
36315;SDS011;22343;50.820;2.666;2023-06-26T14:21:32;8.77;;;5.57;;
36315;SDS011;22343;50.820;2.666;2023-06-26T14:24:22;8.95;;;4.03;;
36315;SDS011;22343;50.820;2.666;2023-06-26T14:27:07;4.38;;;3.20;;
36315;SDS011;22343;50.820;2.666;2023-06-26T14:29:53;6.95;;;4.22;;
36315;SDS011;22343;50.820;2.666;2023-06-26T14:32:39;4.68;;;3.03;;
36315;SDS011;22343;50.820;2.666;2023-06-26T14:35:25;4.63;;;4.10;;
36315;SDS011;22343;50.820;2.666;2023-06-26T14:38:09;5.65;;;3.10;;
36315;SDS011;22343;50.820;2.666;2023-06-26T14:40:54;4.18;;;2.72;;
36315;SDS011;22343;50.820;2.666;2023-06-26T14:43:40;5.13;;;3.42;;
36315;SDS011;22343;50.820;2.666;2023-06-26T14:46:25;4.25;;;3.28;;
36315;SDS011;22343;50.820;2.666;2023-06-26T14:49:11;4.85;;;3.50;;
36315;SDS011;22343;50.820;2.666;2023-06-26T14:51:56;7.20;;;6.05;;
36315;SDS011;22343;50.820;2.666;2023-06-26T14:54:42;5.22;;;2.92;;
36315;SDS011;22343;50.820;2.666;2023-06-26T14:57:27;7.80;;;4.95;;
36315;SDS011;22343;50.820;2.666;2023-06-26T15:00:13;3.97;;;2.60;;
36315;SDS011;22343;50.820;2.666;2023-06-26T15:03:00;6.88;;;3.20;;
36315;SDS011;22343;50.820;2.666;2023-06-26T15:05:46;4.63;;;2.70;;
36315;SDS011;22343;50.820;2.666;2023-06-26T15:08:32;4.85;;;2.80;;
36315;SDS011;22343;50.820;2.666;2023-06-26T15:11:18;8.70;;;2.80;;
36315;SDS011;22343;50.820;2.666;2023-06-26T15:14:04;5.93;;;2.67;;
36315;SDS011;22343;50.820;2.666;2023-06-26T15:16:49;3.42;;;2.25;;
36315;SDS011;22343;50.820;2.666;2023-06-26T15:19:36;6.22;;;2.92;;
36315;SDS011;22343;50.820;2.666;2023-06-26T15:22:22;6.18;;;3.40;;
36315;SDS011;22343;50.820;2.666;2023-06-26T15:25:08;6.40;;;3.35;;
36315;SDS011;22343;50.820;2.666;2023-06-26T15:27:54;4.95;;;3.22;;
36315;SDS011;22343;50.820;2.666;2023-06-26T15:30:39;4.03;;;2.55;;
36315;SDS011;22343;50.820;2.666;2023-06-26T15:33:25;6.72;;;3.10;;
36315;SDS011;22343;50.820;2.666;2023-06-26T15:36:11;5.28;;;2.58;;
36315;SDS011;22343;50.820;2.666;2023-06-26T15:38:56;3.17;;;2.40;;
36315;SDS011;22343;50.820;2.666;2023-06-26T15:41:43;4.05;;;2.55;;
36315;SDS011;22343;50.820;2.666;2023-06-26T15:44:29;7.60;;;2.90;;
36315;SDS011;22343;50.820;2.666;2023-06-26T15:47:15;6.15;;;3.00;;
36315;SDS011;22343;50.820;2.666;2023-06-26T15:50:01;5.38;;;2.90;;
36315;SDS011;22343;50.820;2.666;2023-06-26T15:52:47;6.40;;;2.80;;
36315;SDS011;22343;50.820;2.666;2023-06-26T15:55:33;7.40;;;2.63;;
36315;SDS011;22343;50.820;2.666;2023-06-26T15:58:19;5.75;;;2.72;;
36315;SDS011;22343;50.820;2.666;2023-06-26T16:01:05;7.18;;;2.78;;
36315;SDS011;22343;50.820;2.666;2023-06-26T16:03:50;6.30;;;3.00;;
36315;SDS011;22343;50.820;2.666;2023-06-26T16:06:36;5.30;;;2.60;;
36315;SDS011;22343;50.820;2.666;2023-06-26T16:09:21;6.57;;;2.65;;
36315;SDS011;22343;50.820;2.666;2023-06-26T16:12:07;5.35;;;2.35;;
36315;SDS011;22343;50.820;2.666;2023-06-26T16:14:53;4.68;;;2.50;;
36315;SDS011;22343;50.820;2.666;2023-06-26T16:17:39;6.40;;;2.70;;
36315;SDS011;22343;50.820;2.666;2023-06-26T16:20:25;4.10;;;2.47;;
36315;SDS011;22343;50.820;2.666;2023-06-26T16:23:10;5.15;;;2.53;;
36315;SDS011;22343;50.820;2.666;2023-06-26T16:25:56;3.80;;;2.70;;
36315;SDS011;22343;50.820;2.666;2023-06-26T16:28:41;5.82;;;2.95;;
36315;SDS011;22343;50.820;2.666;2023-06-26T16:31:27;6.55;;;2.95;;
36315;SDS011;22343;50.820;2.666;2023-06-26T16:34:12;6.75;;;2.85;;
36315;SDS011;22343;50.820;2.666;2023-06-26T16:36:58;5.15;;;2.65;;
36315;SDS011;22343;50.820;2.666;2023-06-26T16:39:45;5.45;;;2.83;;
36315;SDS011;22343;50.820;2.666;2023-06-26T16:42:31;5.95;;;2.70;;
36315;SDS011;22343;50.820;2.666;2023-06-26T16:45:17;6.80;;;2.60;;
36315;SDS011;22343;50.820;2.666;2023-06-26T16:48:03;6.28;;;2.72;;
36315;SDS011;22343;50.820;2.666;2023-06-26T16:50:49;6.93;;;2.75;;
36315;SDS011;22343;50.820;2.666;2023-06-26T16:53:35;8.10;;;2.72;;
36315;SDS011;22343;50.820;2.666;2023-06-26T16:56:20;7.40;;;3.13;;
36315;SDS011;22343;50.820;2.666;2023-06-26T16:59:07;5.75;;;2.88;;
36315;SDS011;22343;50.820;2.666;2023-06-26T17:01:53;7.78;;;2.83;;